Time;durP1;ratioP1;P1;durP2;ratioP2;P2;SDS_P1;SDS_P2;PMS_P1;PMS_P2;Temp;Humidity;BMP_temperature;BMP_pressure;BME280_temperature;BME280_humidity;BME280_pressure;Samples;Min_cycle;Max_cycle;Signal;HPM_P1;HPM_P2
2022/04/09 00:01:39;;;;;;;4.78;3.25;;;;;;;;;;6259287;22;20019;-88
2022/04/09 00:04:05;;;;;;;0.40;0.40;;;;;;;;;;6258594;22;20011;-88
2022/04/09 00:06:31;;;;;;;0.90;0.70;;;;;;;;;;6258726;22;20019;-88
2022/04/09 00:08:57;;;;;;;1.42;0.63;;;;;;;;;;6259065;22;20011;-88
2022/04/09 00:11:23;;;;;;;0.82;0.65;;;;;;;;;;6258447;22;20018;-88
2022/04/09 00:13:49;;;;;;;2.83;1.13;;;;;;;;;;6258479;22;20019;-89
2022/04/09 00:16:15;;;;;;;8.77;0.70;;;;;;;;;;6258415;22;20448;-89
2022/04/09 00:18:43;;;;;;;1.52;0.60;;;;;;;;;;6258771;22;20022;-88
2022/04/09 00:21:10;;;;;;;2.20;0.98;;;;;;;;;;6258274;22;20019;-89
2022/04/09 00:23:36;;;;;;;2.45;0.88;;;;;;;;;;6257378;22;20015;-89
2022/04/09 00:26:03;;;;;;;1.20;0.70;;;;;;;;;;6258335;22;20090;-88
2022/04/09 00:28:29;;;;;;;1.80;0.63;;;;;;;;;;6258612;22;20043;-88
2022/04/09 00:30:55;;;;;;;0.63;0.50;;;;;;;;;;6258544;22;20095;-88
2022/04/09 00:33:21;;;;;;;1.52;0.82;;;;;;;;;;6258492;22;20440;-88
2022/04/09 00:35:47;;;;;;;5.25;1.40;;;;;;;;;;6258360;22;20042;-88
2022/04/09 00:38:13;;;;;;;1.33;0.93;;;;;;;;;;6258477;22;20065;-89
2022/04/09 00:40:39;;;;;;;4.50;1.00;;;;;;;;;;6257994;22;20019;-88
2022/04/09 00:43:05;;;;;;;4.45;1.27;;;;;;;;;;6258414;22;20015;-88
2022/04/09 00:45:31;;;;;;;5.07;1.25;;;;;;;;;;6257903;22;20349;-88
2022/04/09 00:47:57;;;;;;;2.30;0.85;;;;;;;;;;6283330;22;20030;-88
2022/04/09 00:50:23;;;;;;;1.02;0.47;;;;;;;;;;6258715;22;20086;-88
2022/04/09 00:52:50;;;;;;;1.15;0.80;;;;;;;;;;6259482;22;20008;-89
2022/04/09 00:55:18;;;;;;;1.00;0.88;;;;;;;;;;6259636;22;20029;-88
2022/04/09 00:57:45;;;;;;;20.60;2.05;;;;;;;;;;6258784;22;20011;-89
2022/04/09 01:00:11;;;;;;;1.10;0.50;;;;;;;;;;6259983;22;20019;-89
2022/04/09 01:02:41;;;;;;;2.15;1.08;;;;;;;;;;6259920;22;20019;-88
2022/04/09 01:05:08;;;;;;;5.25;1.92;;;;;;;;;;6258777;22;20111;-89
2022/04/09 01:07:34;;;;;;;7.20;2.08;;;;;;;;;;6258989;22;20475;-89
2022/04/09 01:10:00;;;;;;;1.05;0.60;;;;;;;;;;6259482;22;20011;-89
2022/04/09 01:12:26;;;;;;;1.35;0.70;;;;;;;;;;6260029;22;20022;-88
2022/04/09 01:14:53;;;;;;;3.80;0.82;;;;;;;;;;6257340;22;20389;-87
2022/04/09 01:17:19;;;;;;;0.65;0.55;;;;;;;;;;6257161;22;20019;-88
2022/04/09 01:19:45;;;;;;;0.75;0.50;;;;;;;;;;6257867;22;20015;-88
2022/04/09 01:22:11;;;;;;;1.33;0.93;;;;;;;;;;6258015;22;20076;-88
2022/04/09 01:24:37;;;;;;;3.95;1.13;;;;;;;;;;6258560;22;20037;-88
2022/04/09 01:27:03;;;;;;;1.63;0.60;;;;;;;;;;6258441;22;20036;-89
2022/04/09 01:29:29;;;;;;;4.25;0.85;;;;;;;;;;6258766;22;20015;-89
2022/04/09 01:31:55;;;;;;;16.08;0.80;;;;;;;;;;6258756;22;20518;-88
2022/04/09 01:34:22;;;;;;;4.18;0.90;;;;;;;;;;6258926;22;20012;-88
2022/04/09 01:36:48;;;;;;;0.38;0.38;;;;;;;;;;6259334;22;20019;-89
2022/04/09 01:39:17;;;;;;;3.55;1.13;;;;;;;;;;6259089;22;20369;-88
2022/04/09 01:41:44;;;;;;;0.50;0.50;;;;;;;;;;6258727;22;20015;-89
2022/04/09 01:44:10;;;;;;;0.50;0.50;;;;;;;;;;6258582;22;20076;-88
2022/04/09 01:46:37;;;;;;;9.85;1.05;;;;;;;;;;6258341;22;20084;-87
2022/04/09 01:49:04;;;;;;;1.65;0.77;;;;;;;;;;6283379;22;20034;-88
2022/04/09 01:51:30;;;;;;;4.72;1.10;;;;;;;;;;6257401;22;20436;-87
2022/04/09 01:53:56;;;;;;;1.38;0.60;;;;;;;;;;6257718;22;20392;-88
2022/04/09 01:56:22;;;;;;;8.13;0.90;;;;;;;;;;6257725;22;20045;-88
2022/04/09 01:58:48;;;;;;;0.57;0.57;;;;;;;;;;6259455;22;20019;-88
2022/04/09 02:01:17;;;;;;;6.88;1.95;;;;;;;;;;6260539;22;20051;-89
2022/04/09 02:03:43;;;;;;;1.02;0.70;;;;;;;;;;6235643;22;20101;-88
2022/04/09 02:06:09;;;;;;;20.88;2.08;;;;;;;;;;6259945;22;20011;-88
2022/04/09 02:08:35;;;;;;;0.85;0.60;;;;;;;;;;6260139;22;20022;-88
2022/04/09 02:11:01;;;;;;;1.75;0.80;;;;;;;;;;6259851;22;20008;-88
2022/04/09 02:13:27;;;;;;;3.88;1.17;;;;;;;;;;6258816;22;20039;-87
2022/04/09 02:15:53;;;;;;;0.75;0.75;;;;;;;;;;6284595;22;20348;-88
2022/04/09 02:18:19;;;;;;;2.70;1.58;;;;;;;;;;6259723;22;20098;-88
2022/04/09 02:20:45;;;;;;;0.90;0.85;;;;;;;;;;6259825;22;20018;-88
2022/04/09 02:23:11;;;;;;;0.52;0.47;;;;;;;;;;6259847;22;20033;-88
2022/04/09 02:25:37;;;;;;;0.85;0.45;;;;;;;;;;6259298;22;20402;-89
2022/04/09 02:28:04;;;;;;;1.05;0.77;;;;;;;;;;6259670;22;20345;-88
2022/04/09 02:30:29;;;;;;;4.97;1.35;;;;;;;;;;6259308;22;20568;-88
2022/04/09 02:32:56;;;;;;;1.50;0.70;;;;;;;;;;6258991;22;20007;-88
2022/04/09 02:35:28;;;;;;;0.40;0.40;;;;;;;;;;6259740;22;20015;-89
2022/04/09 02:37:54;;;;;;;2.05;1.50;;;;;;;;;;6259727;22;20453;-88
2022/04/09 02:40:20;;;;;;;0.30;0.30;;;;;;;;;;6259539;22;20106;-87
2022/04/09 02:42:46;;;;;;;0.30;0.30;;;;;;;;;;6259306;22;20022;-88
2022/04/09 02:45:12;;;;;;;0.30;0.30;;;;;;;;;;6284510;22;20463;-88
2022/04/09 02:47:39;;;;;;;0.40;0.40;;;;;;;;;;6259150;22;20015;-88
2022/04/09 02:50:06;;;;;;;0.40;0.40;;;;;;;;;;6259405;22;20017;-88
2022/04/09 02:52:35;;;;;;;0.32;0.32;;;;;;;;;;6258825;22;20502;-88
2022/04/09 02:55:02;;;;;;;1.02;0.63;;;;;;;;;;6256071;22;20047;-88
2022/04/09 02:57:28;;;;;;;0.65;0.65;;;;;;;;;;6258819;22;20344;-88
2022/04/09 02:59:54;;;;;;;0.40;0.40;;;;;;;;;;6258719;22;20011;-88
2022/04/09 03:02:20;;;;;;;1.33;0.60;;;;;;;;;;6259174;22;20050;-88
2022/04/09 03:04:46;;;;;;;2.05;1.38;;;;;;;;;;6259336;22;20047;-89
2022/04/09 03:07:12;;;;;;;6.53;1.42;;;;;;;;;;6259523;22;20011;-88
2022/04/09 03:09:38;;;;;;;0.80;0.57;;;;;;;;;;6258194;22;20065;-88
2022/04/09 03:12:04;;;;;;;0.93;0.63;;;;;;;;;;6283943;22;20011;-89
2022/04/09 03:14:30;;;;;;;1.30;0.98;;;;;;;;;;6259137;22;20011;-89
2022/04/09 03:16:56;;;;;;;0.65;0.60;;;;;;;;;;6258557;22;20098;-88
2022/04/09 03:19:22;;;;;;;1.45;0.77;;;;;;;;;;6259058;22;20322;-88
2022/04/09 03:21:48;;;;;;;1.95;0.50;;;;;;;;;;6258867;22;20022;-87
2022/04/09 03:24:14;;;;;;;1.27;0.95;;;;;;;;;;6257875;22;20007;-88
2022/04/09 03:26:41;;;;;;;0.98;0.77;;;;;;;;;;6258851;22;20080;-88
2022/04/09 03:29:07;;;;;;;0.65;0.43;;;;;;;;;;6258243;22;20017;-88
2022/04/09 03:31:35;;;;;;;0.40;0.40;;;;;;;;;;6259132;22;20043;-88
2022/04/09 03:34:02;;;;;;;0.40;0.40;;;;;;;;;;6259166;22;20011;-88
2022/04/09 03:36:27;;;;;;;1.15;0.70;;;;;;;;;;6258869;22;20018;-88
2022/04/09 03:38:53;;;;;;;0.38;0.38;;;;;;;;;;6284400;22;20015;-88
2022/04/09 03:41:19;;;;;;;0.40;0.40;;;;;;;;;;6258814;22;20015;-88
2022/04/09 03:43:46;;;;;;;1.38;1.10;;;;;;;;;;6259561;22;20020;-88
2022/04/09 03:46:12;;;;;;;0.50;0.50;;;;;;;;;;6258640;22;20016;-88
2022/04/09 03:48:38;;;;;;;0.68;0.60;;;;;;;;;;6258731;22;20007;-88
2022/04/09 03:51:04;;;;;;;0.77;0.60;;;;;;;;;;6259047;22;20011;-88
2022/04/09 03:53:30;;;;;;;1.00;0.60;;;;;;;;;;6258625;22;20015;-88
2022/04/09 03:55:56;;;;;;;1.20;1.00;;;;;;;;;;6258652;22;20072;-89
2022/04/09 03:58:23;;;;;;;0.40;0.40;;;;;;;;;;6258831;22;20015;-88
2022/04/09 04:00:49;;;;;;;2.40;1.08;;;;;;;;;;6284731;22;20015;-88
2022/04/09 04:03:15;;;;;;;0.40;0.40;;;;;;;;;;6259274;22;20090;-88
2022/04/09 04:05:41;;;;;;;2.55;2.35;;;;;;;;;;6258672;22;20016;-88
2022/04/09 04:08:07;;;;;;;0.50;0.50;;;;;;;;;;6258856;22;20344;-89
2022/04/09 04:10:35;;;;;;;0.38;0.38;;;;;;;;;;6258012;22;20016;-89
2022/04/09 04:13:02;;;;;;;1.67;0.80;;;;;;;;;;6257873;22;20040;-89
2022/04/09 04:15:28;;;;;;;0.40;0.40;;;;;;;;;;6257852;22;20019;-88
2022/04/09 04:17:55;;;;;;;0.40;0.40;;;;;;;;;;6257867;22;20022;-88
2022/04/09 04:20:23;;;;;;;2.08;1.90;;;;;;;;;;6257345;22;20019;-88
2022/04/09 04:22:51;;;;;;;0.40;0.40;;;;;;;;;;6257389;22;20019;-88
2022/04/09 04:25:17;;;;;;;4.53;0.80;;;;;;;;;;6257219;22;20461;-88
2022/04/09 04:27:43;;;;;;;0.80;0.65;;;;;;;;;;6257579;22;20092;-88
2022/04/09 04:30:10;;;;;;;5.13;0.80;;;;;;;;;;6257591;22;20066;-89
2022/04/09 04:32:36;;;;;;;4.35;0.60;;;;;;;;;;6259168;22;20498;-89
2022/04/09 04:35:03;;;;;;;2.78;1.13;;;;;;;;;;6284455;22;20483;-88
2022/04/09 04:37:39;;;;;;;0.40;0.40;;;;;;;;;;6258438;22;20383;-88
2022/04/09 04:40:05;;;;;;;1.67;0.85;;;;;;;;;;6258927;22;20026;-89
2022/04/09 04:42:31;;;;;;;1.70;0.60;;;;;;;;;;6259407;22;20022;-88
2022/04/09 04:44:57;;;;;;;2.08;1.08;;;;;;;;;;6259615;22;20023;-88
2022/04/09 04:47:23;;;;;;;0.73;0.60;;;;;;;;;;6259691;22;20340;-88
2022/04/09 04:49:49;;;;;;;2.85;1.30;;;;;;;;;;6259069;22;20026;-88
2022/04/09 04:52:15;;;;;;;4.65;1.30;;;;;;;;;;6258965;22;20119;-86
2022/04/09 04:54:41;;;;;;;2.35;0.77;;;;;;;;;;6259365;22;20015;-88
2022/04/09 04:57:07;;;;;;;1.58;0.77;;;;;;;;;;6258437;22;20483;-88
2022/04/09 04:59:33;;;;;;;5.07;0.75;;;;;;;;;;6259050;22;20007;-87
2022/04/09 05:01:59;;;;;;;0.93;0.60;;;;;;;;;;6258395;22;20011;-87
2022/04/09 05:04:25;;;;;;;1.23;0.88;;;;;;;;;;6284404;22;20015;-87
2022/04/09 05:06:51;;;;;;;0.85;0.60;;;;;;;;;;6258396;22;20011;-88
2022/04/09 05:09:18;;;;;;;1.77;1.10;;;;;;;;;;6258815;22;20022;-87
2022/04/09 05:11:44;;;;;;;2.05;0.70;;;;;;;;;;6258260;22;20011;-87
2022/04/09 05:14:11;;;;;;;1.48;0.73;;;;;;;;;;6284140;22;20011;-88
2022/04/09 05:16:37;;;;;;;0.95;0.70;;;;;;;;;;6257867;22;20023;-87
2022/04/09 05:19:04;;;;;;;0.80;0.80;;;;;;;;;;6258966;22;20148;-87
2022/04/09 05:21:30;;;;;;;4.07;0.63;;;;;;;;;;6258600;22;20022;-87
2022/04/09 05:23:55;;;;;;;0.30;0.30;;;;;;;;;;6258757;22;20082;-87
2022/04/09 05:26:21;;;;;;;1.05;0.57;;;;;;;;;;6258029;22;20019;-88
2022/04/09 05:28:53;;;;;;;1.55;0.57;;;;;;;;;;6258664;22;20023;-88
2022/04/09 05:31:22;;;;;;;0.60;0.60;;;;;;;;;;6259094;22;20437;-87
2022/04/09 05:33:49;;;;;;;0.40;0.40;;;;;;;;;;6259564;22;20015;-87
2022/04/09 05:36:15;;;;;;;1.65;0.77;;;;;;;;;;6285414;22;20444;-87
2022/04/09 05:38:42;;;;;;;3.40;0.80;;;;;;;;;;6260442;22;20106;-89
2022/04/09 05:41:09;;;;;;;1.30;0.52;;;;;;;;;;6260494;22;20011;-88
2022/04/09 05:43:35;;;;;;;0.50;0.50;;;;;;;;;;6287100;22;20023;-88
2022/04/09 05:46:01;;;;;;;0.50;0.45;;;;;;;;;;6261151;22;20015;-87
2022/04/09 05:48:27;;;;;;;4.00;1.58;;;;;;;;;;6259476;22;20015;-88
2022/04/09 05:50:53;;;;;;;0.35;0.35;;;;;;;;;;6261379;22;20022;-88
2022/04/09 05:53:19;;;;;;;2.80;0.60;;;;;;;;;;6261167;22;20050;-88
2022/04/09 05:55:45;;;;;;;1.90;0.82;;;;;;;;;;6260372;22;20353;-89
2022/04/09 05:58:11;;;;;;;0.50;0.50;;;;;;;;;;6260292;22;20011;-88
2022/04/09 06:00:37;;;;;;;1.70;0.60;;;;;;;;;;6260148;22;20468;-88
2022/04/09 06:03:03;;;;;;;2.83;0.77;;;;;;;;;;6259308;22;20326;-88
2022/04/09 06:05:30;;;;;;;4.28;1.13;;;;;;;;;;6259347;22;20019;-88
2022/04/09 06:07:56;;;;;;;30.60;1.15;;;;;;;;;;6259195;22;20007;-87
2022/04/09 06:10:22;;;;;;;3.45;1.35;;;;;;;;;;6259219;22;20460;-87
2022/04/09 06:12:48;;;;;;;4.35;0.98;;;;;;;;;;6259766;22;20007;-88
2022/04/09 06:15:15;;;;;;;3.75;1.23;;;;;;;;;;6259322;22;20019;-88
2022/04/09 06:17:41;;;;;;;1.27;0.80;;;;;;;;;;6258977;22;20022;-89
2022/04/09 06:20:08;;;;;;;7.70;1.38;;;;;;;;;;6259038;22;20019;-88
2022/04/09 06:22:34;;;;;;;13.23;1.40;;;;;;;;;;6259597;22;20041;-87
2022/04/09 06:25:00;;;;;;;5.93;1.05;;;;;;;;;;6259516;22;20023;-88
2022/04/09 06:27:26;;;;;;;9.82;1.15;;;;;;;;;;6259072;22;20034;-88
2022/04/09 06:29:54;;;;;;;2.75;1.00;;;;;;;;;;6259260;22;20011;-88
2022/04/09 06:32:20;;;;;;;14.82;1.27;;;;;;;;;;6258875;22;20098;-88
2022/04/09 06:34:46;;;;;;;4.43;1.63;;;;;;;;;;6259443;22;20011;-88
2022/04/09 06:37:12;;;;;;;6.05;1.35;;;;;;;;;;6283969;22;20018;-87
2022/04/09 06:39:38;;;;;;;2.33;0.70;;;;;;;;;;6258922;22;20011;-88
2022/04/09 06:42:04;;;;;;;1.85;1.00;;;;;;;;;;6258149;22;20030;-87
2022/04/09 06:44:30;;;;;;;1.52;1.08;;;;;;;;;;6258755;22;20019;-87
2022/04/09 06:46:56;;;;;;;1.85;0.43;;;;;;;;;;6258276;22;20018;-88
2022/04/09 06:49:22;;;;;;;8.27;1.50;;;;;;;;;;6258563;22;20015;-88
2022/04/09 06:51:48;;;;;;;0.60;0.60;;;;;;;;;;6256346;22;20022;-87
2022/04/09 06:54:14;;;;;;;3.38;0.80;;;;;;;;;;6258363;22;20349;-88
2022/04/09 06:56:40;;;;;;;1.23;1.00;;;;;;;;;;6259842;22;20011;-89
2022/04/09 06:59:06;;;;;;;1.65;0.60;;;;;;;;;;6260584;22;20102;-88
2022/04/09 07:01:32;;;;;;;1.67;0.70;;;;;;;;;;6259744;22;20015;-88
2022/04/09 07:04:00;;;;;;;7.38;1.20;;;;;;;;;;6259238;22;20023;-88
2022/04/09 07:06:26;;;;;;;1.52;0.70;;;;;;;;;;6258468;22;20015;-88
2022/04/09 07:08:52;;;;;;;5.53;1.10;;;;;;;;;;6284250;22;20019;-88
2022/04/09 07:11:18;;;;;;;3.45;1.08;;;;;;;;;;6259157;22;20041;-88
2022/04/09 07:13:44;;;;;;;9.38;0.77;;;;;;;;;;6258363;22;20380;-88
2022/04/09 07:16:11;;;;;;;4.00;1.25;;;;;;;;;;6258515;22;20015;-88
2022/04/09 07:18:37;;;;;;;8.10;1.25;;;;;;;;;;6257842;22;20084;-88
2022/04/09 07:21:04;;;;;;;4.03;0.73;;;;;;;;;;6258212;22;20469;-88
2022/04/09 07:23:30;;;;;;;1.00;0.60;;;;;;;;;;6257339;22;20065;-88
2022/04/09 07:25:57;;;;;;;1.58;0.70;;;;;;;;;;6257812;22;20019;-88
2022/04/09 07:28:23;;;;;;;0.95;0.82;;;;;;;;;;6283851;22;20061;-89
2022/04/09 07:30:51;;;;;;;2.85;1.50;;;;;;;;;;6258750;22;20010;-88
2022/04/09 07:33:17;;;;;;;3.22;1.00;;;;;;;;;;6258628;22;20057;-88
2022/04/09 07:35:43;;;;;;;2.38;1.02;;;;;;;;;;6258837;22;20051;-89
2022/04/09 07:38:10;;;;;;;2.38;1.05;;;;;;;;;;6259095;22;20374;-88
2022/04/09 07:40:37;;;;;;;3.90;0.93;;;;;;;;;;6283988;22;20377;-88
2022/04/09 07:43:03;;;;;;;3.30;1.15;;;;;;;;;;6259172;22;20053;-89
2022/04/09 07:45:29;;;;;;;2.25;1.15;;;;;;;;;;6258514;22;20045;-88
2022/04/09 07:47:56;;;;;;;8.80;1.77;;;;;;;;;;6258543;22;20441;-88
2022/04/09 07:50:22;;;;;;;2.35;0.75;;;;;;;;;;6258103;22;20440;-88
2022/04/09 07:52:48;;;;;;;2.17;0.70;;;;;;;;;;6258439;22;20011;-88
2022/04/09 07:55:16;;;;;;;5.45;0.95;;;;;;;;;;6283496;22;20410;-88
2022/04/09 07:57:42;;;;;;;12.45;0.98;;;;;;;;;;6258299;22;20060;-88
2022/04/09 08:00:09;;;;;;;9.95;0.60;;;;;;;;;;6258083;22;20026;-88
2022/04/09 08:02:35;;;;;;;4.75;0.95;;;;;;;;;;6258023;22;20455;-88
2022/04/09 08:05:01;;;;;;;4.30;0.95;;;;;;;;;;6258164;22;20022;-89
2022/04/09 08:07:27;;;;;;;0.90;0.40;;;;;;;;;;6257790;22;20413;-88
2022/04/09 08:09:53;;;;;;;8.40;1.60;;;;;;;;;;6257925;22;20015;-88
2022/04/09 08:12:19;;;;;;;1.08;0.60;;;;;;;;;;6257587;22;20072;-88
2022/04/09 08:14:46;;;;;;;0.85;0.40;;;;;;;;;;6258213;22;20461;-89
2022/04/09 08:17:13;;;;;;;17.35;1.08;;;;;;;;;;6258612;22;20015;-88
2022/04/09 08:19:39;;;;;;;4.35;1.00;;;;;;;;;;6258386;22;20018;-88
2022/04/09 08:22:06;;;;;;;12.05;2.75;;;;;;;;;;6258038;22;20018;-88
2022/04/09 08:24:32;;;;;;;2.35;1.48;;;;;;;;;;6258562;22;20011;-88
2022/04/09 08:26:58;;;;;;;1.73;0.80;;;;;;;;;;6258479;22;20008;-88
2022/04/09 08:29:24;;;;;;;1.80;0.60;;;;;;;;;;6259292;22;20022;-88
2022/04/09 08:31:51;;;;;;;0.32;0.32;;;;;;;;;;6259068;22;20046;-89
2022/04/09 08:34:17;;;;;;;1.15;0.63;;;;;;;;;;6258996;22;20467;-88
2022/04/09 08:36:44;;;;;;;4.60;0.80;;;;;;;;;;6260252;22;20019;-88
2022/04/09 08:39:11;;;;;;;0.95;0.73;;;;;;;;;;6259617;22;20018;-88
2022/04/09 08:41:37;;;;;;;4.18;0.90;;;;;;;;;;6259225;22;20019;-89
2022/04/09 08:44:03;;;;;;;2.38;0.90;;;;;;;;;;6259819;22;20015;-89
2022/04/09 08:46:30;;;;;;;5.40;1.35;;;;;;;;;;6284999;22;20022;-89
2022/04/09 08:48:58;;;;;;;2.05;0.68;;;;;;;;;;6258233;22;20022;-88
2022/04/09 08:51:25;;;;;;;2.67;0.88;;;;;;;;;;6258612;22;20053;-88
2022/04/09 08:53:52;;;;;;;0.50;0.45;;;;;;;;;;6257887;22;20071;-88
2022/04/09 08:56:18;;;;;;;1.58;0.50;;;;;;;;;;6258372;22;20030;-88
2022/04/09 08:58:44;;;;;;;4.35;0.98;;;;;;;;;;6258807;22;20323;-89
2022/04/09 09:01:11;;;;;;;1.95;0.43;;;;;;;;;;6258862;22;20019;-88
2022/04/09 09:03:37;;;;;;;0.40;0.40;;;;;;;;;;6259126;22;20011;-88
2022/04/09 09:06:23;;;;;;;2.15;0.63;;;;;;;;;;6258592;22;20057;-88
2022/04/09 09:08:49;;;;;;;1.13;0.60;;;;;;;;;;6259177;22;20011;-88
2022/04/09 09:11:15;;;;;;;1.88;0.77;;;;;;;;;;6258840;22;20018;-87
2022/04/09 09:13:48;;;;;;;1.65;0.60;;;;;;;;;;6258793;22;20104;-87
2022/04/09 09:16:28;;;;;;;0.40;0.40;;;;;;;;;;6258855;22;20101;-87
2022/04/09 09:18:56;;;;;;;1.65;0.75;;;;;;;;;;6258839;22;20011;-88
2022/04/09 09:21:23;;;;;;;5.80;0.95;;;;;;;;;;6284636;22;20015;-87
2022/04/09 09:24:12;;;;;;;2.75;0.90;;;;;;;;;;6258413;22;20019;-88
2022/04/09 09:26:38;;;;;;;4.13;0.80;;;;;;;;;;6258323;22;20019;-88
2022/04/09 09:29:04;;;;;;;1.88;0.77;;;;;;;;;;6257871;22;20015;-87
2022/04/09 09:31:44;;;;;;;3.42;0.77;;;;;;;;;;6258036;22;20030;-87
2022/04/09 09:34:15;;;;;;;1.70;0.60;;;;;;;;;;6257445;22;20015;-88
2022/04/09 09:36:43;;;;;;;1.95;0.60;;;;;;;;;;6257456;22;20026;-87
2022/04/09 09:39:09;;;;;;;1.40;0.57;;;;;;;;;;6258028;22;20015;-87
2022/04/09 09:41:46;;;;;;;2.47;0.95;;;;;;;;;;6257468;22;20020;-88
2022/04/09 09:44:12;;;;;;;3.17;1.08;;;;;;;;;;6257936;22;20098;-87
2022/04/09 09:46:38;;;;;;;3.88;0.82;;;;;;;;;;6257929;22;20489;-87
2022/04/09 09:49:05;;;;;;;1.33;0.63;;;;;;;;;;6257512;22;20022;-88
2022/04/09 09:51:31;;;;;;;1.75;0.60;;;;;;;;;;6257682;22;20011;-88
2022/04/09 09:54:08;;;;;;;8.90;1.45;;;;;;;;;;6257660;22;20461;-88
2022/04/09 09:56:38;;;;;;;7.32;2.95;;;;;;;;;;6257415;22;20101;-88
2022/04/09 09:59:05;;;;;;;4.85;1.15;;;;;;;;;;6257479;22;20026;-87
2022/04/09 10:01:36;;;;;;;2.25;1.23;;;;;;;;;;6282887;22;20019;-88
2022/04/09 10:04:04;;;;;;;7.10;1.10;;;;;;;;;;6257958;22;20019;-88
2022/04/09 10:06:31;;;;;;;2.95;1.00;;;;;;;;;;6257733;22;20093;-87
2022/04/09 10:08:58;;;;;;;3.17;0.90;;;;;;;;;;6259476;22;20015;-87
2022/04/09 10:11:24;;;;;;;4.20;1.13;;;;;;;;;;6258485;22;20445;-88
2022/04/09 10:13:54;;;;;;;1.92;0.80;;;;;;;;;;6259500;22;20019;-88
2022/04/09 10:16:21;;;;;;;7.43;0.60;;;;;;;;;;6259152;22;20022;-88
2022/04/09 10:18:51;;;;;;;1.05;0.70;;;;;;;;;;6258824;22;20070;-88
2022/04/09 10:21:18;;;;;;;3.05;0.73;;;;;;;;;;6259547;22;20050;-88
2022/04/09 10:23:45;;;;;;;5.05;1.05;;;;;;;;;;6259146;22;20015;-88
2022/04/09 10:26:12;;;;;;;2.40;0.73;;;;;;;;;;6258824;22;20019;-88
2022/04/09 10:28:39;;;;;;;2.63;1.40;;;;;;;;;;6259336;22;20026;-88
2022/04/09 10:31:24;;;;;;;3.78;1.33;;;;;;;;;;6260028;22;20017;-88
2022/04/09 10:33:55;;;;;;;4.43;1.15;;;;;;;;;;6259313;22;20007;-88
2022/04/09 10:36:40;;;;;;;1.95;0.90;;;;;;;;;;6259310;22;20019;-88
2022/04/09 10:39:39;;;;;;;6.00;1.20;;;;;;;;;;6258706;22;20071;-87
2022/04/09 10:42:07;;;;;;;4.72;0.98;;;;;;;;;;6258992;22;20094;-89
2022/04/09 10:44:50;;;;;;;2.90;0.50;;;;;;;;;;6259613;22;20022;-89
2022/04/09 10:47:20;;;;;;;1.25;0.60;;;;;;;;;;6259671;22;20049;-88
2022/04/09 10:50:18;;;;;;;0.85;0.60;;;;;;;;;;6259044;22;20011;-89
2022/04/09 10:52:48;;;;;;;1.13;0.47;;;;;;;;;;6209849;22;20019;-88
2022/04/09 10:55:15;;;;;;;1.10;0.60;;;;;;;;;;6259856;22;20022;-88
2022/04/09 10:57:42;;;;;;;5.47;1.65;;;;;;;;;;6259054;22;20015;-89
2022/04/09 11:00:09;;;;;;;5.43;0.82;;;;;;;;;;6259132;22;20019;-87
2022/04/09 11:02:35;;;;;;;4.50;0.95;;;;;;;;;;6259196;22;20015;-87
2022/04/09 11:05:21;;;;;;;1.73;0.55;;;;;;;;;;6259551;22;20394;-88
2022/04/09 11:07:47;;;;;;;;;;;;;;;;;;6258196;22;20011;-88
2022/04/09 11:10:15;;;;;;;1.40;0.68;;;;;;;;;;6259552;22;19968;-88
2022/04/09 11:12:41;;;;;;;1.73;0.70;;;;;;;;;;6259073;22;20350;-87
2022/04/09 11:15:08;;;;;;;1.38;0.73;;;;;;;;;;6259468;22;20061;-88
2022/04/09 11:17:35;;;;;;;7.38;1.60;;;;;;;;;;6258457;22;20020;-88
2022/04/09 11:20:32;;;;;;;0.73;0.60;;;;;;;;;;6258503;22;20015;-87
2022/04/09 11:23:06;;;;;;;5.35;1.10;;;;;;;;;;6259068;22;20072;-87
2022/04/09 11:25:32;;;;;;;0.55;0.50;;;;;;;;;;6284657;22;20015;-87
2022/04/09 11:28:05;;;;;;;1.58;0.73;;;;;;;;;;6259239;22;20073;-88
2022/04/09 11:30:31;;;;;;;5.13;0.73;;;;;;;;;;6258134;22;20015;-86
2022/04/09 11:32:57;;;;;;;2.60;0.70;;;;;;;;;;6257955;22;20021;-86
2022/04/09 11:35:26;;;;;;;2.60;0.68;;;;;;;;;;6257270;22;20049;-87
2022/04/09 11:37:52;;;;;;;1.73;0.95;;;;;;;;;;6232225;22;20019;-88
2022/04/09 11:40:19;;;;;;;1.65;0.55;;;;;;;;;;6260343;22;20011;-89
2022/04/09 11:42:48;;;;;;;1.50;0.82;;;;;;;;;;6258007;22;20019;-89
2022/04/09 11:45:20;;;;;;;0.47;0.40;;;;;;;;;;6259231;22;20019;-89
2022/04/09 11:47:47;;;;;;;1.08;0.40;;;;;;;;;;6258502;22;20382;-89
2022/04/09 11:50:13;;;;;;;0.50;0.50;;;;;;;;;;6234610;22;20046;-89
2022/04/09 11:52:41;;;;;;;1.55;0.90;;;;;;;;;;6260883;22;20500;-88
2022/04/09 11:55:10;;;;;;;4.40;0.60;;;;;;;;;;6260914;22;20463;-88
2022/04/09 11:57:46;;;;;;;4.32;0.82;;;;;;;;;;6260815;22;20038;-89
2022/04/09 12:00:13;;;;;;;10.30;1.30;;;;;;;;;;6261400;22;20101;-89
2022/04/09 12:02:40;;;;;;;0.75;0.32;;;;;;;;;;6260555;22;20105;-89
2022/04/09 12:05:09;;;;;;;1.02;0.60;;;;;;;;;;6285918;22;20015;-89
2022/04/09 12:07:39;;;;;;;0.30;0.30;;;;;;;;;;6259990;22;20013;-88
2022/04/09 12:10:06;;;;;;;0.40;0.40;;;;;;;;;;6259892;22;20019;-89
2022/04/09 12:12:37;;;;;;;0.60;0.60;;;;;;;;;;6257843;22;20008;-89
2022/04/09 12:15:03;;;;;;;6.50;0.80;;;;;;;;;;6260217;22;20042;-89
2022/04/09 12:17:33;;;;;;;4.28;0.90;;;;;;;;;;6285799;22;20015;-89
2022/04/09 12:19:59;;;;;;;0.52;0.50;;;;;;;;;;6259405;22;20019;-88
2022/04/09 12:22:27;;;;;;;3.97;1.42;;;;;;;;;;6259506;22;20045;-89
2022/04/09 12:24:57;;;;;;;1.40;0.68;;;;;;;;;;6260019;22;20064;-88
2022/04/09 12:27:43;;;;;;;3.47;0.90;;;;;;;;;;6260345;22;20019;-88
2022/04/09 12:30:09;;;;;;;0.20;0.20;;;;;;;;;;6234617;22;20086;-89
2022/04/09 12:32:41;;;;;;;1.80;1.17;;;;;;;;;;6260351;22;20015;-89
2022/04/09 12:35:11;;;;;;;4.15;1.75;;;;;;;;;;6259795;22;20023;-89
2022/04/09 12:37:45;;;;;;;0.30;0.30;;;;;;;;;;6259955;22;20468;-90
2022/04/09 12:40:19;;;;;;;1.65;0.40;;;;;;;;;;6260440;22;20022;-90
2022/04/09 12:42:48;;;;;;;2.28;0.40;;;;;;;;;;6259730;22;20019;-89
2022/04/09 12:45:16;;;;;;;0.30;0.30;;;;;;;;;;6259178;22;20057;-89
2022/04/09 12:47:42;;;;;;;2.50;0.63;;;;;;;;;;6259298;22;20015;-89
2022/04/09 12:50:17;;;;;;;2.67;0.73;;;;;;;;;;6259644;22;20011;-89
2022/04/09 12:52:43;;;;;;;;;;;;;;;;;;6259176;22;20011;-89
2022/04/09 12:55:09;;;;;;;3.75;0.98;;;;;;;;;;6258523;22;19918;-89
2022/04/09 12:57:36;;;;;;;4.53;1.13;;;;;;;;;;6283979;22;20463;-89
2022/04/09 13:00:03;;;;;;;3.53;0.50;;;;;;;;;;6258890;22;20094;-89
2022/04/09 13:02:29;;;;;;;1.75;1.00;;;;;;;;;;6258778;22;20019;-91
2022/04/09 13:04:56;;;;;;;3.60;1.55;;;;;;;;;;6259234;22;20015;-90
2022/04/09 13:07:22;;;;;;;0.75;0.50;;;;;;;;;;6284576;22;20019;-90
2022/04/09 13:09:48;;;;;;;7.35;0.85;;;;;;;;;;6258784;22;20019;-89
2022/04/09 13:12:14;;;;;;;2.28;0.65;;;;;;;;;;6259383;22;20030;-89
2022/04/09 13:14:40;;;;;;;1.90;0.65;;;;;;;;;;6258333;22;20467;-89
2022/04/09 13:17:06;;;;;;;2.45;0.93;;;;;;;;;;6259178;22;20011;-89
2022/04/09 13:19:35;;;;;;;1.38;0.47;;;;;;;;;;6263434;22;20015;-92
2022/04/09 13:22:06;;;;;;;3.30;0.93;;;;;;;;;;6263239;22;20015;-90
2022/04/09 13:24:33;;;;;;;1.00;0.68;;;;;;;;;;6265262;22;20041;-91
2022/04/09 13:26:59;;;;;;;0.85;0.55;;;;;;;;;;6264803;22;20019;-91
2022/04/09 13:29:28;;;;;;;2.38;0.80;;;;;;;;;;6265157;22;20016;-91
2022/04/09 13:31:57;;;;;;;2.30;0.85;;;;;;;;;;6265031;22;20375;-92
2022/04/09 13:34:25;;;;;;;3.50;0.73;;;;;;;;;;6265960;22;20387;-93
2022/04/09 13:36:52;;;;;;;5.68;1.10;;;;;;;;;;6268236;22;20019;-93
2022/04/09 13:39:19;;;;;;;4.45;1.02;;;;;;;;;;6267374;22;20076;-94
2022/04/09 13:41:45;;;;;;;2.03;1.00;;;;;;;;;;6268808;22;20015;-94
2022/04/09 13:44:22;;;;;;;2.80;0.77;;;;;;;;;;6269349;22;20015;-94
2022/04/09 13:46:48;;;;;;;2.25;0.80;;;;;;;;;;6263787;22;20019;-87
2022/04/09 13:49:16;;;;;;;4.47;0.75;;;;;;;;;;6259754;22;20490;-90
2022/04/09 13:51:48;;;;;;;6.18;0.80;;;;;;;;;;6264988;22;20038;-93
2022/04/09 13:54:14;;;;;;;8.07;0.95;;;;;;;;;;6264153;22;20015;-91
2022/04/09 13:56:42;;;;;;;7.57;0.93;;;;;;;;;;6264208;22;20015;-94
2022/04/09 13:59:12;;;;;;;0.60;0.50;;;;;;;;;;6267210;22;20015;-91
2022/04/09 14:01:38;;;;;;;0.70;0.40;;;;;;;;;;6264055;22;20030;-90
2022/04/09 14:04:04;;;;;;;1.05;0.52;;;;;;;;;;6264160;22;20019;-90
2022/04/09 14:06:31;;;;;;;1.85;0.70;;;;;;;;;;6268554;22;20023;-94
2022/04/09 14:09:00;;;;;;;2.42;0.45;;;;;;;;;;6240810;22;20041;-90
2022/04/09 14:11:26;;;;;;;0.40;0.40;;;;;;;;;;6267373;22;20018;-94
2022/04/09 14:13:53;;;;;;;2.15;0.65;;;;;;;;;;6267170;22;20063;-88
2022/04/09 14:16:19;;;;;;;0.45;0.40;;;;;;;;;;6263236;22;20094;-89
2022/04/09 14:18:46;;;;;;;1.95;0.88;;;;;;;;;;6263702;22;20019;-90
2022/04/09 14:21:13;;;;;;;5.10;1.40;;;;;;;;;;6283324;22;20023;-88
2022/04/09 14:23:39;;;;;;;0.93;0.50;;;;;;;;;;6258619;22;20015;-89
2022/04/09 14:26:05;;;;;;;2.08;0.70;;;;;;;;;;6257079;22;20407;-85
2022/04/09 14:28:31;;;;;;;1.05;0.50;;;;;;;;;;6259437;22;20011;-89
2022/04/09 14:30:58;;;;;;;2.70;0.75;;;;;;;;;;6260619;22;20020;-89
2022/04/09 14:33:27;;;;;;;2.00;0.82;;;;;;;;;;6262323;22;20457;-91
2022/04/09 14:35:53;;;;;;;2.38;0.80;;;;;;;;;;6288442;22;20039;-94
2022/04/09 14:38:24;;;;;;;4.10;1.00;;;;;;;;;;6267872;22;20015;-92
2022/04/09 14:40:52;;;;;;;3.38;1.38;;;;;;;;;;6265627;22;20015;-90
2022/04/09 14:43:20;;;;;;;1.38;0.65;;;;;;;;;;6264998;22;20397;-92
2022/04/09 14:45:46;;;;;;;2.05;0.77;;;;;;;;;;6265626;22;20093;-91